Time;durP1;ratioP1;P1;durP2;ratioP2;P2;SDS_P1;SDS_P2;PMS_P1;PMS_P2;Temp;Humidity;BMP_temperature;BMP_pressure;BME280_temperature;BME280_humidity;BME280_pressure;Samples;Min_cycle;Max_cycle;Signal;HPM_P1;HPM_P2
2022/03/22 00:00:55;;;;;;;20.63;8.05;;;9.10;56.80;;;;;;5055760;28;20050;-77
2022/03/22 00:03:24;;;;;;;16.90;8.35;;;9.10;56.90;;;;;;5055366;28;20455;-77
2022/03/22 00:05:51;;;;;;;17.17;8.23;;;9.00;56.80;;;;;;5073266;28;20013;-77
2022/03/22 00:08:17;;;;;;;13.38;7.80;;;9.00;56.90;;;;;;5054944;28;20013;-77
2022/03/22 00:10:44;;;;;;;15.10;7.65;;;8.90;57.00;;;;;;5065465;28;20107;-77
2022/03/22 00:13:10;;;;;;;12.85;7.30;;;8.80;57.90;;;;;;5073404;28;20017;-77
2022/03/22 00:15:36;;;;;;;17.17;7.95;;;8.70;58.20;;;;;;5072646;28;20081;-77
2022/03/22 00:18:03;;;;;;;13.65;7.57;;;8.60;58.40;;;;;;5055453;28;20032;-77
2022/03/22 00:20:29;;;;;;;16.33;7.32;;;8.60;58.10;;;;;;5054962;28;20600;-77
2022/03/22 00:22:55;;;;;;;14.30;7.95;;;8.60;58.10;;;;;;5055743;28;20225;-77
2022/03/22 00:25:21;;;;;;;17.10;7.78;;;8.60;58.20;;;;;;5055175;28;20052;-77
2022/03/22 00:27:55;;;;;;;14.55;7.90;;;8.60;57.90;;;;;;5073412;28;20020;-76
2022/03/22 00:30:30;;;;;;;17.00;8.35;;;8.60;57.90;;;;;;5055189;28;20179;-77
2022/03/22 00:32:59;;;;;;;17.33;8.00;;;8.60;57.90;;;;;;5055028;28;20020;-77
2022/03/22 00:35:28;;;;;;;15.70;7.60;;;8.60;58.20;;;;;;5072742;28;20369;-77
2022/03/22 00:37:56;;;;;;;16.08;8.25;;;8.50;58.40;;;;;;5072370;28;20536;-77
2022/03/22 00:40:24;;;;;;;19.58;7.70;;;8.50;58.70;;;;;;5054778;28;20031;-77
2022/03/22 00:42:53;;;;;;;14.73;7.82;;;8.40;58.40;;;;;;5055532;28;20086;-77
2022/03/22 00:45:18;;;;;;;15.00;7.72;;;8.40;58.10;;;;;;5054867;28;20404;-77
2022/03/22 00:47:49;;;;;;;16.23;7.57;;;8.40;58.60;;;;;;5055404;28;20020;-77
2022/03/22 00:50:17;;;;;;;10.57;7.05;;;8.30;59.20;;;;;;5055297;28;20021;-77
2022/03/22 00:52:43;;;;;;;13.93;7.78;;;8.20;59.10;;;;;;5072825;28;20035;-76
2022/03/22 00:55:12;;;;;;;16.90;8.52;;;8.20;59.50;;;;;;5072063;28;20439;-76
2022/03/22 00:57:39;;;;;;;15.55;7.57;;;8.10;59.60;;;;;;5054631;28;20107;-76
2022/03/22 01:00:08;;;;;;;15.23;7.90;;;8.10;59.70;;;;;;5073046;28;20024;-76
2022/03/22 01:02:35;;;;;;;16.88;8.23;;;8.10;60.30;;;;;;5072637;28;20021;-76
2022/03/22 01:05:03;;;;;;;15.70;7.47;;;8.10;59.00;;;;;;5055098;28;20473;-76
2022/03/22 01:07:29;;;;;;;18.02;8.07;;;8.00;59.10;;;;;;5054656;28;20047;-76
2022/03/22 01:09:55;;;;;;;14.70;8.18;;;8.00;59.10;;;;;;5055164;28;20059;-77
2022/03/22 01:12:21;;;;;;;12.25;7.20;;;8.00;59.60;;;;;;5054752;28;20032;-78
2022/03/22 01:14:46;;;;;;;13.13;7.20;;;8.00;59.20;;;;;;5055354;28;20042;-77
2022/03/22 01:17:12;;;;;;;18.35;8.52;;;7.90;59.00;;;;;;5073112;28;20024;-77
2022/03/22 01:19:39;;;;;;;15.18;8.18;;;7.90;59.30;;;;;;5054533;28;20041;-77
2022/03/22 01:22:06;;;;;;;14.10;7.38;;;7.90;59.90;;;;;;5054689;28;20485;-77
2022/03/22 01:24:32;;;;;;;13.65;7.63;;;7.90;59.90;;;;;;5054623;28;20028;-77
2022/03/22 01:26:58;;;;;;;11.68;6.90;;;7.80;59.60;;;;;;5071634;28;20027;-77
2022/03/22 01:29:23;;;;;;;16.70;7.78;;;7.80;60.10;;;;;;5054541;28;20024;-77
2022/03/22 01:31:50;;;;;;;15.07;7.80;;;7.70;60.10;;;;;;5054909;28;20457;-77
2022/03/22 01:34:16;;;;;;;14.98;8.18;;;7.70;59.90;;;;;;5072792;28;20028;-77
2022/03/22 01:36:42;;;;;;;14.63;7.05;;;7.60;59.90;;;;;;5054335;28;20025;-77
2022/03/22 01:39:07;;;;;;;13.70;7.72;;;7.60;60.20;;;;;;5072867;28;20020;-77
2022/03/22 01:41:34;;;;;;;15.13;7.00;;;7.50;60.80;;;;;;5053872;28;20049;-76
2022/03/22 01:44:00;;;;;;;14.90;8.15;;;7.40;61.10;;;;;;5072589;28;20064;-77
2022/03/22 01:46:27;;;;;;;14.07;7.18;;;7.40;61.20;;;;;;5057874;28;20086;-78
2022/03/22 01:48:53;;;;;;;13.48;7.35;;;7.40;61.00;;;;;;5059200;28;20029;-77
2022/03/22 01:51:23;;;;;;;15.52;8.18;;;7.40;61.50;;;;;;5076640;28;20024;-78
2022/03/22 01:53:50;;;;;;;15.35;7.15;;;7.40;61.70;;;;;;5059269;28;20025;-77
2022/03/22 01:56:16;;;;;;;13.55;7.93;;;7.30;62.00;;;;;;5076768;28;20052;-77
2022/03/22 01:58:42;;;;;;;13.38;7.80;;;7.30;61.80;;;;;;5076043;28;20468;-77
2022/03/22 02:06:39;;;;;;;16.60;8.07;;;7.10;63.10;;;;;;5075941;28;20116;-77
2022/03/22 02:09:04;;;;;;;15.80;8.70;;;7.00;63.50;;;;;;5076514;28;20468;-78
2022/03/22 02:11:31;;;;;;;15.15;8.20;;;7.00;63.70;;;;;;5075592;28;20071;-77
2022/03/22 02:13:56;;;;;;;14.82;7.95;;;6.90;64.00;;;;;;5076386;28;20036;-78
2022/03/22 02:16:22;;;;;;;15.13;7.55;;;6.90;64.10;;;;;;5074928;28;20089;-82
2022/03/22 02:18:51;;;;;;;13.73;7.83;;;6.90;63.60;;;;;;5074621;28;20473;-76
2022/03/22 02:21:19;;;;;;;14.02;7.53;;;6.80;64.00;;;;;;5074619;28;20086;-76
2022/03/22 02:23:55;;;;;;;14.30;7.27;;;6.80;64.20;;;;;;5075499;28;20029;-76
2022/03/22 02:26:23;;;;;;;14.20;7.17;;;6.80;64.20;;;;;;5057711;28;20020;-76
2022/03/22 02:28:54;;;;;;;17.77;7.78;;;6.70;64.30;;;;;;5057511;28;20098;-76
2022/03/22 02:31:23;;;;;;;16.30;7.75;;;6.70;64.50;;;;;;5057884;28;20105;-77
2022/03/22 02:33:49;;;;;;;15.32;7.40;;;6.60;64.10;;;;;;5075338;28;20449;-77
2022/03/22 02:36:15;;;;;;;16.27;7.47;;;6.70;63.70;;;;;;5057610;28;20116;-77
2022/03/22 02:38:41;;;;;;;14.00;6.90;;;6.70;63.90;;;;;;5074917;28;20028;-77
2022/03/22 02:41:07;;;;;;;13.63;7.60;;;6.70;64.50;;;;;;5057318;28;20466;-76
2022/03/22 02:43:33;;;;;;;14.90;7.00;;;6.70;65.00;;;;;;5074872;28;20033;-76
2022/03/22 02:45:59;;;;;;;15.47;8.10;;;6.70;65.00;;;;;;5075256;28;20028;-76
2022/03/22 02:48:24;;;;;;;14.00;7.27;;;6.70;65.10;;;;;;5073852;28;20089;-82
2022/03/22 02:50:51;;;;;;;16.90;7.97;;;6.60;66.30;;;;;;5075288;28;20036;-78
2022/03/22 02:53:17;;;;;;;16.63;7.50;;;6.50;66.20;;;;;;5057113;28;20055;-78
2022/03/22 02:55:42;;;;;;;16.77;7.43;;;6.50;67.50;;;;;;5073796;28;20070;-77
2022/03/22 02:58:08;;;;;;;14.83;7.73;;;6.40;67.90;;;;;;5075616;28;20025;-77
2022/03/22 03:00:35;;;;;;;15.80;7.67;;;6.40;68.20;;;;;;5056958;28;20146;-77
2022/03/22 03:03:00;;;;;;;15.87;8.10;;;6.30;68.60;;;;;;5057824;28;20424;-77
2022/03/22 03:05:26;;;;;;;16.97;8.20;;;6.10;69.40;;;;;;5057170;28;20028;-81
2022/03/22 03:07:52;;;;;;;18.10;8.03;;;6.00;70.90;;;;;;5074129;28;20116;-78
2022/03/22 03:10:18;;;;;;;16.17;7.83;;;5.90;71.60;;;;;;5075072;28;20116;-77
2022/03/22 03:12:44;;;;;;;13.47;7.47;;;5.80;72.10;;;;;;5056111;28;20024;-78
2022/03/22 03:15:11;;;;;;;16.53;8.10;;;5.70;72.90;;;;;;5074672;28;20035;-77
2022/03/22 03:17:38;;;;;;;13.80;8.43;;;5.60;74.70;;;;;;5074409;28;20031;-78
2022/03/22 03:20:07;;;;;;;17.93;7.93;;;5.50;76.00;;;;;;5074001;28;20481;-77
2022/03/22 03:22:33;;;;;;;17.03;8.40;;;5.40;77.20;;;;;;5074171;28;20037;-78
2022/03/22 03:24:59;;;;;;;16.23;8.20;;;5.40;77.10;;;;;;5056957;28;20024;-78
2022/03/22 03:27:25;;;;;;;14.63;8.07;;;5.30;78.40;;;;;;5073298;28;20082;-81
2022/03/22 03:29:51;;;;;;;15.17;8.27;;;5.30;79.20;;;;;;5056277;28;20081;-78
2022/03/22 03:32:16;;;;;;;16.10;8.40;;;5.20;79.60;;;;;;5074420;28;20048;-78
2022/03/22 03:34:42;;;;;;;14.43;7.40;;;5.20;81.60;;;;;;5056113;28;20024;-78
2022/03/22 03:37:08;;;;;;;15.20;8.33;;;5.20;82.30;;;;;;5074549;28;20513;-77
2022/03/22 03:39:34;;;;;;;16.47;8.47;;;5.10;83.30;;;;;;5056427;28;20035;-78
2022/03/22 03:42:02;;;;;;;16.30;8.30;;;5.00;84.30;;;;;;5056972;28;20036;-78
2022/03/22 03:47:21;;;;;;;17.03;8.13;;;4.90;87.50;;;;;;5074419;28;20032;-76
2022/03/22 03:49:56;;;;;;;17.80;7.97;;;4.90;88.60;;;;;;5055906;28;20032;-77
2022/03/22 03:52:26;;;;;;;17.17;8.50;;;4.80;89.40;;;;;;5056149;28;20029;-76
2022/03/22 03:54:52;;;;;;;15.63;7.70;;;4.90;89.90;;;;;;5055198;28;20029;-77
2022/03/22 03:57:19;;;;;;;17.97;9.00;;;4.70;90.00;;;;;;5073410;28;20025;-76
2022/03/22 03:59:45;;;;;;;14.00;7.83;;;4.70;90.90;;;;;;5055259;28;20477;-76
2022/03/22 04:02:12;;;;;;;16.30;8.10;;;4.70;91.00;;;;;;5055590;28;20035;-77
2022/03/22 04:04:41;;;;;;;16.03;8.10;;;4.60;91.40;;;;;;5071728;28;20382;-76
2022/03/22 04:07:10;;;;;;;15.67;7.60;;;4.60;91.80;;;;;;5071968;28;20082;-76
2022/03/22 04:09:38;;;;;;;15.60;7.73;;;4.50;91.90;;;;;;5071924;28;20031;-77
2022/03/22 04:12:05;;;;;;;15.47;8.07;;;4.50;92.20;;;;;;5073980;28;20035;-76
2022/03/22 04:14:30;;;;;;;16.20;7.90;;;4.50;92.20;;;;;;5055501;28;20082;-82
2022/03/22 04:16:56;;;;;;;16.07;8.33;;;4.40;92.70;;;;;;5073547;28;20024;-76
2022/03/22 04:19:23;;;;;;;14.97;7.63;;;4.40;92.70;;;;;;5073485;28;20076;-76
2022/03/22 04:21:49;;;;;;;15.40;8.10;;;4.40;92.90;;;;;;5071532;28;20028;-76
2022/03/22 04:24:15;;;;;;;18.20;8.40;;;4.40;92.90;;;;;;5055572;28;20029;-75
2022/03/22 04:26:42;;;;;;;15.10;8.30;;;4.40;92.30;;;;;;5055125;28;20062;-76
2022/03/22 04:34:39;;;;;;;15.40;7.50;;;4.50;91.40;;;;;;5072997;28;20062;-76
2022/03/22 04:37:06;;;;;;;16.63;8.50;;;4.60;90.60;;;;;;5055291;28;20024;-76
2022/03/22 04:39:33;;;;;;;14.40;7.57;;;4.80;90.00;;;;;;5054990;28;20378;-80
2022/03/22 04:41:59;;;;;;;16.87;8.30;;;4.80;89.70;;;;;;5073192;28;20036;-76
2022/03/22 04:44:29;;;;;;;16.63;7.73;;;4.90;88.10;;;;;;5073193;28;20077;-76
2022/03/22 04:46:57;;;;;;;14.80;7.53;;;4.90;87.90;;;;;;5055358;28;20024;-78
2022/03/22 04:49:24;;;;;;;15.53;7.77;;;4.90;88.20;;;;;;5055631;28;20082;-78
2022/03/22 04:57:18;;;;;;;12.83;7.43;;;4.80;88.70;;;;;;5073020;28;20086;-77
2022/03/22 04:59:44;;;;;;;17.50;8.10;;;4.70;88.90;;;;;;5072658;28;20024;-77
2022/03/22 05:02:10;;;;;;;18.63;8.73;;;4.70;89.40;;;;;;5054953;28;20028;-77
2022/03/22 05:04:37;;;;;;;16.57;7.80;;;4.60;90.00;;;;;;5054641;28;20040;-77
2022/03/22 05:07:03;;;;;;;13.80;7.90;;;4.60;90.10;;;;;;5054986;28;20052;-76
2022/03/22 05:09:28;;;;;;;16.30;8.47;;;4.60;90.30;;;;;;5055156;28;20046;-76
2022/03/22 05:11:58;;;;;;;16.47;8.13;;;4.50;90.80;;;;;;5070850;28;20540;-76
2022/03/22 05:14:24;;;;;;;13.07;8.03;;;4.40;91.80;;;;;;5071596;28;20029;-76
2022/03/22 05:16:50;;;;;;;15.50;8.07;;;4.20;92.20;;;;;;5072703;28;20025;-77
2022/03/22 05:19:16;;;;;;;17.93;8.43;;;4.10;92.40;;;;;;5073283;28;20064;-76
2022/03/22 05:21:42;;;;;;;17.67;8.77;;;4.10;92.70;;;;;;5075538;28;20147;-77
2022/03/22 05:24:08;;;;;;;16.03;8.27;;;4.00;93.10;;;;;;5059229;28;20416;-76
2022/03/22 05:26:35;;;;;;;15.20;8.60;;;3.90;93.60;;;;;;5059046;28;20056;-80
2022/03/22 05:29:04;;;;;;;14.30;8.23;;;3.90;93.30;;;;;;5058641;28;20025;-77
2022/03/22 05:31:31;;;;;;;19.07;9.20;;;4.10;92.90;;;;;;5075169;28;20127;-77
2022/03/22 05:33:57;;;;;;;14.77;8.27;;;4.00;93.10;;;;;;5058043;28;20021;-76
2022/03/22 05:36:23;;;;;;;15.70;7.67;;;3.90;93.20;;;;;;5058291;28;20051;-77
2022/03/22 05:38:48;;;;;;;18.57;8.30;;;3.90;93.40;;;;;;5057643;28;20020;-77
2022/03/22 05:41:14;;;;;;;17.93;8.73;;;3.90;93.70;;;;;;5058870;28;20105;-77
2022/03/22 05:43:41;;;;;;;16.43;8.50;;;3.80;93.90;;;;;;5076090;28;20028;-77
2022/03/22 05:46:08;;;;;;;16.23;8.80;;;3.90;93.60;;;;;;5058738;28;20035;-77
2022/03/22 05:48:34;;;;;;;19.93;8.97;;;3.90;93.50;;;;;;5058725;28;20115;-78
2022/03/22 05:50:59;;;;;;;15.63;8.40;;;3.90;93.80;;;;;;5057809;28;20659;-77
2022/03/22 05:53:25;;;;;;;16.47;8.43;;;3.90;94.00;;;;;;5057666;28;20021;-77
2022/03/22 05:55:51;;;;;;;18.10;8.77;;;3.90;94.20;;;;;;5074636;28;20366;-77
2022/03/22 05:58:17;;;;;;;16.27;8.57;;;4.00;94.10;;;;;;5057577;28;20035;-77
2022/03/22 06:00:43;;;;;;;17.40;8.63;;;4.00;94.20;;;;;;5057654;28;20032;-76
2022/03/22 06:03:08;;;;;;;20.80;9.23;;;4.00;94.10;;;;;;5057526;28;20028;-77
2022/03/22 06:05:34;;;;;;;16.70;8.80;;;4.10;93.80;;;;;;5058073;28;20036;-76
2022/03/22 06:08:01;;;;;;;23.17;9.53;;;4.20;93.70;;;;;;5057235;28;20381;-77
2022/03/22 06:10:28;;;;;;;19.83;8.77;;;4.20;94.10;;;;;;5057289;28;20074;-78
2022/03/22 06:12:55;;;;;;;20.30;9.97;;;4.10;94.00;;;;;;5057458;28;20028;-78
2022/03/22 06:15:23;;;;;;;22.37;10.20;;;4.10;94.10;;;;;;5075637;28;20526;-79
2022/03/22 06:18:03;;;;;;;16.07;9.00;;;4.20;94.00;;;;;;5057271;28;20025;-78
2022/03/22 06:20:32;;;;;;;20.53;9.63;;;4.20;93.70;;;;;;5057303;28;20072;-77
2022/03/22 06:23:03;;;;;;;17.93;8.63;;;4.30;93.00;;;;;;5056694;28;20021;-77
2022/03/22 06:25:29;;;;;;;15.40;8.27;;;4.40;92.70;;;;;;5057818;28;20025;-77
2022/03/22 06:27:56;;;;;;;17.93;9.00;;;4.40;93.00;;;;;;5057314;28;20036;-77
2022/03/22 06:30:23;;;;;;;21.07;8.70;;;4.40;92.80;;;;;;5074579;28;20032;-77
2022/03/22 06:32:57;;;;;;;16.73;8.63;;;4.40;92.80;;;;;;5057331;28;20056;-77
2022/03/22 06:35:43;;;;;;;19.60;8.50;;;4.40;92.70;;;;;;5057730;28;20059;-77
2022/03/22 06:38:09;;;;;;;18.83;9.13;;;4.50;93.80;;;;;;5057834;28;20477;-77
2022/03/22 06:40:37;;;;;;;19.77;9.40;;;4.50;93.40;;;;;;5075005;28;20040;-76
2022/03/22 06:43:09;;;;;;;18.03;9.50;;;4.60;93.90;;;;;;5057298;28;20029;-77
2022/03/22 06:45:35;;;;;;;18.70;8.80;;;4.70;94.00;;;;;;5057791;28;20028;-78
2022/03/22 06:48:01;;;;;;;19.47;9.63;;;4.70;93.90;;;;;;5057464;28;20779;-78
2022/03/22 06:50:27;;;;;;;18.90;9.13;;;4.70;93.50;;;;;;5057531;28;20028;-78
2022/03/22 06:52:53;;;;;;;17.77;8.83;;;4.80;93.00;;;;;;5056975;28;20029;-77
2022/03/22 06:55:22;;;;;;;17.60;8.60;;;4.80;93.60;;;;;;5075221;28;20025;-77
2022/03/22 06:57:50;;;;;;;17.57;8.97;;;4.90;93.50;;;;;;5056992;28;20035;-77
2022/03/22 07:00:17;;;;;;;16.03;8.73;;;5.00;93.00;;;;;;5057207;28;20119;-77
2022/03/22 07:02:42;;;;;;;21.67;9.30;;;5.00;93.10;;;;;;5074652;28;20024;-79
2022/03/22 07:05:09;;;;;;;17.87;8.43;;;5.10;92.50;;;;;;5073689;28;20074;-77
2022/03/22 07:07:35;;;;;;;17.87;9.13;;;5.20;92.10;;;;;;5057249;28;20032;-77
2022/03/22 07:10:02;;;;;;;17.70;8.80;;;5.20;91.80;;;;;;5073059;28;20530;-77
2022/03/22 07:12:27;;;;;;;20.50;9.00;;;5.30;90.90;;;;;;5075117;28;20033;-77
2022/03/22 07:14:53;;;;;;;18.33;8.63;;;5.40;91.00;;;;;;5074762;28;20032;-78
2022/03/22 07:17:19;;;;;;;19.47;8.77;;;5.40;92.40;;;;;;5056698;28;20024;-76
2022/03/22 07:19:45;;;;;;;18.30;8.87;;;5.50;93.00;;;;;;5073708;28;20127;-76
2022/03/22 07:22:10;;;;;;;19.30;9.00;;;5.60;92.40;;;;;;5056582;28;20105;-76
2022/03/22 07:24:36;;;;;;;17.73;9.03;;;5.70;91.50;;;;;;5056761;28;20028;-76
2022/03/22 07:27:04;;;;;;;16.70;8.87;;;5.80;90.70;;;;;;5073725;28;20090;-76
2022/03/22 07:29:29;;;;;;;16.20;8.50;;;5.90;91.10;;;;;;5056250;28;20025;-76
2022/03/22 07:31:57;;;;;;;19.10;9.07;;;5.90;91.00;;;;;;5072486;28;20039;-76
2022/03/22 07:34:23;;;;;;;16.53;7.87;;;5.90;91.40;;;;;;5074243;28;20016;-75
2022/03/22 07:36:52;;;;;;;20.73;9.10;;;6.00;90.10;;;;;;5055897;28;20031;-76
2022/03/22 07:39:19;;;;;;;20.73;9.13;;;6.10;88.90;;;;;;5073242;28;20114;-76
2022/03/22 07:41:46;;;;;;;16.37;8.40;;;6.10;88.40;;;;;;5055586;28;20118;-76
2022/03/22 07:44:12;;;;;;;18.17;8.67;;;6.20;87.20;;;;;;5073886;28;20081;-76
2022/03/22 07:46:39;;;;;;;20.93;9.83;;;6.30;86.70;;;;;;5073627;28;20024;-76
2022/03/22 07:54:46;;;;;;;17.77;9.17;;;6.50;86.60;;;;;;5073597;28;20063;-76
2022/03/22 07:57:12;;;;;;;20.00;10.10;;;6.50;83.10;;;;;;5056115;28;20032;-77
2022/03/22 07:59:38;;;;;;;17.07;9.37;;;6.60;84.20;;;;;;5055660;28;20021;-77
2022/03/22 08:02:04;;;;;;;22.13;9.47;;;6.60;82.20;;;;;;5073311;28;20024;-78
2022/03/22 08:04:30;;;;;;;18.30;9.60;;;6.70;82.40;;;;;;5073780;28;20450;-77
2022/03/22 08:06:56;;;;;;;20.00;9.50;;;6.80;82.10;;;;;;5054868;28;20090;-77
2022/03/22 08:09:22;;;;;;;21.80;9.73;;;6.80;80.30;;;;;;5073488;28;20025;-78
2022/03/22 08:11:50;;;;;;;18.27;10.17;;;6.90;82.40;;;;;;5072738;28;20033;-78
2022/03/22 08:14:16;;;;;;;16.23;9.57;;;6.90;80.60;;;;;;5055214;28;20036;-79
2022/03/22 08:16:42;;;;;;;19.23;9.47;;;6.90;81.50;;;;;;5073193;28;20009;-78
2022/03/22 08:19:07;;;;;;;20.27;9.90;;;7.00;80.70;;;;;;5054683;28;20097;-77
2022/03/22 08:21:34;;;;;;;18.33;10.10;;;7.00;80.70;;;;;;5063414;28;20354;-77
2022/03/22 08:24:00;;;;;;;19.17;9.00;;;7.00;81.40;;;;;;5072451;28;20012;-77
2022/03/22 08:26:26;;;;;;;16.67;9.17;;;7.10;81.40;;;;;;5073023;28;20084;-77
2022/03/22 08:28:52;;;;;;;20.07;9.97;;;7.20;81.60;;;;;;5054561;28;20357;-77
2022/03/22 08:31:18;;;;;;;17.87;10.03;;;7.20;79.80;;;;;;5054513;28;20028;-77
2022/03/22 08:33:44;;;;;;;18.42;9.48;;;7.20;79.40;;;;;;5071954;28;20036;-83
2022/03/22 08:36:09;;;;;;;18.35;9.40;;;7.20;79.90;;;;;;5054126;28;20016;-77
2022/03/22 08:38:35;;;;;;;18.45;10.10;;;7.30;81.40;;;;;;5054447;28;20028;-77
2022/03/22 08:41:01;;;;;;;19.98;9.80;;;7.40;81.30;;;;;;5053729;28;20465;-77
2022/03/22 08:43:27;;;;;;;16.50;9.23;;;7.40;80.60;;;;;;5046081;28;20039;-77
2022/03/22 08:45:54;;;;;;;19.10;9.60;;;7.50;80.30;;;;;;5054492;28;20027;-77
2022/03/22 08:48:21;;;;;;;15.20;8.98;;;7.50;79.60;;;;;;5054240;28;20112;-77
2022/03/22 08:50:49;;;;;;;19.17;10.23;;;7.60;78.90;;;;;;5068003;28;20031;-77
2022/03/22 08:53:16;;;;;;;19.80;9.13;;;7.60;79.00;;;;;;5070206;28;20070;-77
2022/03/22 08:55:43;;;;;;;17.10;9.63;;;7.70;79.90;;;;;;5072531;28;20469;-76
2022/03/22 08:58:08;;;;;;;18.45;9.70;;;7.90;79.40;;;;;;5071982;28;20024;-76
2022/03/22 09:00:36;;;;;;;20.27;9.27;;;8.00;77.60;;;;;;5054392;28;20028;-77
2022/03/22 09:03:03;;;;;;;18.10;9.70;;;8.00;77.90;;;;;;5044373;28;20024;-77
2022/03/22 09:08:13;;;;;;;26.42;13.48;;;8.00;77.80;;;;;;5064372;28;20043;-75
2022/03/22 09:10:39;;;;;;;19.08;10.05;;;8.00;78.70;;;;;;5047991;28;20449;-76
2022/03/22 09:13:06;;;;;;;19.13;9.98;;;8.10;78.00;;;;;;5053610;28;20272;-76
2022/03/22 09:15:36;;;;;;;15.68;8.85;;;8.10;75.70;;;;;;5053957;28;20365;-77
2022/03/22 09:18:03;;;;;;;19.98;9.35;;;8.20;75.10;;;;;;5071720;28;20083;-77
2022/03/22 09:20:32;;;;;;;17.42;9.13;;;8.20;75.10;;;;;;5054088;28;20469;-76
2022/03/22 09:23:00;;;;;;;18.15;9.30;;;8.30;75.50;;;;;;5071153;28;20033;-78
2022/03/22 09:25:27;;;;;;;19.27;9.60;;;8.30;74.50;;;;;;5072585;28;20020;-77
2022/03/22 09:27:54;;;;;;;21.95;10.40;;;8.30;74.40;;;;;;5071725;28;20500;-76
2022/03/22 09:30:20;;;;;;;20.73;9.80;;;8.40;75.50;;;;;;5054098;28;20020;-77
2022/03/22 09:32:47;;;;;;;17.38;9.52;;;8.30;76.70;;;;;;5071346;28;20025;-81
2022/03/22 09:35:17;;;;;;;20.60;9.70;;;8.40;74.40;;;;;;5054003;28;20131;-78
2022/03/22 09:37:43;;;;;;;21.85;9.60;;;8.40;72.70;;;;;;5071909;28;20055;-76
2022/03/22 09:40:13;;;;;;;24.63;10.25;;;8.40;72.40;;;;;;5053840;28;20024;-75
2022/03/22 09:42:43;;;;;;;15.98;8.90;;;8.50;72.20;;;;;;5048259;28;20037;-76
2022/03/22 09:45:10;;;;;;;18.83;9.75;;;8.50;72.90;;;;;;5065973;28;20016;-78
2022/03/22 09:47:37;;;;;;;18.92;9.32;;;8.70;73.40;;;;;;5058213;28;20105;-74
2022/03/22 09:50:04;;;;;;;18.50;9.90;;;8.60;72.50;;;;;;5056083;28;20027;-75
2022/03/22 09:52:30;;;;;;;20.10;9.98;;;8.70;71.70;;;;;;5064024;28;20507;-77
2022/03/22 09:54:56;;;;;;;16.90;9.25;;;8.70;71.00;;;;;;5052774;28;20048;-75
2022/03/22 09:57:21;;;;;;;17.67;9.82;;;8.70;71.00;;;;;;5070397;28;20114;-77
2022/03/22 09:59:47;;;;;;;19.50;10.07;;;8.80;72.80;;;;;;5061801;28;20029;-82
2022/03/22 10:02:13;;;;;;;18.95;9.77;;;8.90;72.70;;;;;;5075843;28;20447;-77
2022/03/22 10:04:44;;;;;;;19.02;9.13;;;9.00;72.10;;;;;;5060191;28;20032;-77
2022/03/22 10:07:18;;;;;;;15.68;9.45;;;9.00;71.30;;;;;;5060619;28;20104;-76
2022/03/22 10:09:54;;;;;;;16.65;9.45;;;9.10;70.70;;;;;;5070029;28;20365;-76
2022/03/22 10:12:26;;;;;;;20.25;9.77;;;9.20;72.00;;;;;;5073339;28;20031;-76
2022/03/22 10:14:52;;;;;;;19.75;10.18;;;9.20;71.20;;;;;;5073123;28;20028;-79
2022/03/22 10:17:18;;;;;;;19.77;10.13;;;9.20;70.70;;;;;;5055991;28;20043;-80
2022/03/22 10:19:46;;;;;;;17.70;9.70;;;9.30;69.70;;;;;;5062165;28;20052;-76
2022/03/22 10:22:12;;;;;;;17.27;9.80;;;9.30;69.30;;;;;;5053592;28;20537;-75
2022/03/22 10:24:46;;;;;;;17.85;9.65;;;9.50;68.50;;;;;;5050724;28;20025;-76
2022/03/22 10:27:26;;;;;;;18.50;9.98;;;9.50;67.40;;;;;;5055807;28;20032;-81
2022/03/22 10:29:53;;;;;;;18.92;9.05;;;9.50;67.00;;;;;;5058324;28;20032;-75
2022/03/22 10:32:30;;;;;;;15.15;9.73;;;9.60;67.70;;;;;;5060713;28;20030;-75
2022/03/22 10:34:56;;;;;;;24.08;10.60;;;9.60;67.50;;;;;;5065843;28;20025;-75
2022/03/22 10:37:28;;;;;;;19.13;10.73;;;9.70;67.40;;;;;;5058672;28;20017;-77
2022/03/22 10:39:53;;;;;;;16.02;9.38;;;9.90;67.80;;;;;;5058218;28;20357;-77
2022/03/22 10:42:22;;;;;;;19.42;9.38;;;9.90;67.50;;;;;;5063598;28;20039;-75
2022/03/22 10:44:50;;;;;;;18.45;9.77;;;9.90;66.70;;;;;;5068979;28;20025;-80
2022/03/22 10:47:27;;;;;;;21.30;9.70;;;10.00;66.80;;;;;;5057287;28;20047;-77
2022/03/22 10:50:05;;;;;;;18.08;9.45;;;10.10;66.20;;;;;;5053641;28;20029;-77
2022/03/22 10:52:32;;;;;;;22.88;10.07;;;10.20;66.10;;;;;;5058118;28;20024;-77
2022/03/22 10:54:59;;;;;;;19.42;10.23;;;10.40;66.00;;;;;;5056959;28;20470;-77
2022/03/22 10:57:32;;;;;;;20.75;10.70;;;10.50;66.30;;;;;;5060446;28;20533;-76
2022/03/22 11:00:02;;;;;;;21.80;9.93;;;10.60;65.00;;;;;;5067483;28;20035;-78
2022/03/22 11:02:33;;;;;;;24.83;13.45;;;10.70;64.60;;;;;;5059264;28;20104;-78
2022/03/22 11:05:00;;;;;;;23.67;11.35;;;10.80;65.00;;;;;;5064406;28;20017;-81
2022/03/22 11:07:27;;;;;;;20.98;10.38;;;11.00;63.40;;;;;;5059698;28;20071;-77
2022/03/22 11:09:53;;;;;;;17.30;10.18;;;11.00;62.80;;;;;;5060011;28;20033;-79
2022/03/22 11:12:19;;;;;;;18.95;10.07;;;11.00;61.80;;;;;;5067266;28;20091;-79
2022/03/22 11:14:45;;;;;;;18.15;10.20;;;11.00;62.00;;;;;;5068304;28;20035;-80
2022/03/22 11:17:12;;;;;;;16.90;9.77;;;11.00;62.50;;;;;;5058420;28;20020;-80
2022/03/22 11:19:38;;;;;;;19.15;10.07;;;11.00;65.60;;;;;;5061171;28;20377;-78
2022/03/22 11:22:05;;;;;;;18.25;9.70;;;11.10;68.50;;;;;;5057674;28;20060;-77
2022/03/22 11:24:31;;;;;;;17.67;10.02;;;11.00;67.20;;;;;;5059852;28;20063;-78
2022/03/22 11:26:57;;;;;;;19.83;9.90;;;11.00;65.80;;;;;;5065542;28;20056;-79
2022/03/22 11:29:27;;;;;;;19.25;10.15;;;11.10;64.50;;;;;;5065727;28;20528;-80
2022/03/22 11:34:39;;;;;;;17.50;9.90;;;11.20;66.30;;;;;;5063076;28;20070;-81
2022/03/22 11:37:05;;;;;;;19.67;9.90;;;11.20;64.10;;;;;;5065692;28;20047;-80
2022/03/22 11:42:20;;;;;;;21.92;10.00;;;11.30;64.00;;;;;;5072089;28;20155;-78
2022/03/22 11:45:02;;;;;;;18.20;9.95;;;11.40;63.40;;;;;;5057482;28;20017;-78
2022/03/22 11:47:41;;;;;;;18.58;10.75;;;11.60;65.90;;;;;;5062615;28;20024;-78
2022/03/22 11:50:09;;;;;;;22.17;10.40;;;11.80;64.60;;;;;;5069091;28;20535;-76
2022/03/22 11:52:36;;;;;;;24.88;11.45;;;11.90;65.00;;;;;;5052761;28;20030;-75
2022/03/22 11:55:06;;;;;;;20.33;10.00;;;12.20;60.90;;;;;;5051841;28;20478;-75
2022/03/22 11:57:50;;;;;;;20.00;10.43;;;12.30;61.20;;;;;;5054017;28;20029;-75
2022/03/22 12:00:40;;;;;;;19.95;9.95;;;12.30;61.10;;;;;;5053217;28;20036;-76
2022/03/22 12:03:09;;;;;;;19.08;11.07;;;12.40;63.40;;;;;;5070285;28;20086;-78
2022/03/22 12:05:34;;;;;;;19.25;10.35;;;12.50;62.30;;;;;;5062581;28;20021;-77
2022/03/22 12:08:14;;;;;;;22.98;10.23;;;12.50;60.80;;;;;;5052314;28;20028;-80
2022/03/22 12:10:44;;;;;;;18.17;9.73;;;12.70;60.40;;;;;;5053188;28;20051;-78
2022/03/22 12:13:10;;;;;;;17.67;9.90;;;13.00;58.50;;;;;;5052721;28;20028;-79
2022/03/22 12:15:36;;;;;;;20.95;10.07;;;13.30;56.10;;;;;;5053937;28;20025;-78
2022/03/22 12:18:02;;;;;;;18.88;9.95;;;13.60;57.30;;;;;;5052629;28;20078;-78
2022/03/22 12:20:27;;;;;;;21.00;9.60;;;13.90;55.10;;;;;;5046475;28;20050;-79
2022/03/22 12:22:56;;;;;;;20.60;9.65;;;13.90;56.20;;;;;;5061371;28;20059;-81
2022/03/22 12:25:33;;;;;;;20.25;10.00;;;14.20;53.00;;;;;;5053377;28;20036;-79
2022/03/22 12:28:09;;;;;;;17.92;10.13;;;14.50;53.50;;;;;;5039275;28;20017;-80
2022/03/22 12:30:45;;;;;;;18.05;9.38;;;14.50;53.90;;;;;;5059650;28;20477;-81
2022/03/22 12:33:18;;;;;;;18.42;9.50;;;14.80;53.50;;;;;;5065479;28;20373;-80
2022/03/22 12:35:45;;;;;;;15.27;8.82;;;15.10;50.10;;;;;;5054642;28;20024;-78
2022/03/22 12:38:12;;;;;;;15.77;8.45;;;15.30;48.50;;;;;;5063512;28;20039;-80
2022/03/22 12:40:38;;;;;;;17.17;9.05;;;15.50;47.60;;;;;;5059432;28;20029;-78
2022/03/22 12:43:06;;;;;;;16.48;8.88;;;15.70;47.70;;;;;;5056138;28;20037;-79
2022/03/22 12:45:32;;;;;;;16.75;8.93;;;15.90;46.50;;;;;;5050285;28;20067;-80
2022/03/22 12:47:59;;;;;;;15.43;8.38;;;16.20;45.40;;;;;;5065754;28;20056;-79
2022/03/22 12:50:27;;;;;;;15.60;8.90;;;16.40;46.40;;;;;;5057354;28;20020;-79
2022/03/22 12:52:53;;;;;;;15.50;8.90;;;16.50;45.50;;;;;;5057117;28;20071;-78
2022/03/22 12:55:20;;;;;;;16.02;8.68;;;16.70;45.10;;;;;;5065305;28;20575;-79
2022/03/22 12:57:48;;;;;;;18.38;9.90;;;16.80;45.10;;;;;;5066214;28;20056;-79
2022/03/22 13:00:32;;;;;;;15.27;8.75;;;17.00;45.90;;;;;;5049713;28;20017;-81
2022/03/22 13:03:12;;;;;;;14.25;8.82;;;17.30;44.30;;;;;;5061474;28;20040;-79
2022/03/22 13:05:42;;;;;;;18.67;10.45;;;17.50;44.30;;;;;;5053818;28;20036;-79
2022/03/22 13:08:16;;;;;;;15.57;9.68;;;17.70;44.90;;;;;;5062376;28;20024;-80
2022/03/22 13:15:01;;;;;;;16.73;9.20;;;18.60;43.50;;;;;;5053491;28;20091;-79
2022/03/22 13:16:20;;;;;;;14.65;8.70;;;19.30;42.10;;;;;;5055523;28;20075;-80
2022/03/22 13:18:50;;;;;;;18.95;11.95;;;20.00;40.10;;;;;;5064724;28;20079;-79
2022/03/22 13:21:22;;;;;;;18.30;9.45;;;20.50;38.40;;;;;;5067567;28;20030;-80